sensor_id;sensor_type;location;lat;lon;timestamp;P1;durP1;ratioP1;P2;durP2;ratioP2
76380;SDS011;65202;52.520;10.528;2023-02-26T00:01:38;7.50;;;1.83;;
76380;SDS011;65202;52.520;10.528;2023-02-26T00:04:07;5.85;;;2.05;;
76380;SDS011;65202;52.520;10.528;2023-02-26T00:06:36;7.88;;;2.38;;
76380;SDS011;65202;52.520;10.528;2023-02-26T00:09:19;9.18;;;1.98;;
76380;SDS011;65202;52.520;10.528;2023-02-26T00:11:47;8.68;;;1.80;;
76380;SDS011;65202;52.520;10.528;2023-02-26T00:14:15;8.30;;;1.95;;
76380;SDS011;65202;52.520;10.528;2023-02-26T00:16:43;8.80;;;1.80;;
76380;SDS011;65202;52.520;10.528;2023-02-26T00:19:21;4.97;;;1.92;;
76380;SDS011;65202;52.520;10.528;2023-02-26T00:21:49;7.28;;;1.77;;
76380;SDS011;65202;52.520;10.528;2023-02-26T00:24:16;8.80;;;2.03;;
76380;SDS011;65202;52.520;10.528;2023-02-26T00:26:43;6.82;;;1.75;;
76380;SDS011;65202;52.520;10.528;2023-02-26T00:29:11;8.98;;;2.35;;
76380;SDS011;65202;52.520;10.528;2023-02-26T00:31:38;9.45;;;2.40;;
76380;SDS011;65202;52.520;10.528;2023-02-26T00:34:09;6.43;;;1.95;;
76380;SDS011;65202;52.520;10.528;2023-02-26T00:36:41;5.38;;;1.63;;
76380;SDS011;65202;52.520;10.528;2023-02-26T00:42:23;8.50;;;1.80;;
76380;SDS011;65202;52.520;10.528;2023-02-26T00:44:50;8.18;;;1.70;;
76380;SDS011;65202;52.520;10.528;2023-02-26T00:50:34;7.97;;;1.80;;
76380;SDS011;65202;52.520;10.528;2023-02-26T00:53:10;6.45;;;1.70;;
76380;SDS011;65202;52.520;10.528;2023-02-26T00:55:57;9.43;;;1.90;;
76380;SDS011;65202;52.520;10.528;2023-02-26T00:58:24;10.82;;;2.75;;
76380;SDS011;65202;52.520;10.528;2023-02-26T01:00:51;10.40;;;2.33;;
76380;SDS011;65202;52.520;10.528;2023-02-26T01:03:18;10.32;;;2.00;;
76380;SDS011;65202;52.520;10.528;2023-02-26T01:05:46;6.93;;;2.17;;
76380;SDS011;65202;52.520;10.528;2023-02-26T01:11:08;7.25;;;2.00;;
76380;SDS011;65202;52.520;10.528;2023-02-26T01:13:35;10.32;;;2.33;;
76380;SDS011;65202;52.520;10.528;2023-02-26T01:16:04;8.00;;;1.98;;
76380;SDS011;65202;52.520;10.528;2023-02-26T01:18:41;9.65;;;1.80;;
76380;SDS011;65202;52.520;10.528;2023-02-26T01:21:17;9.80;;;1.73;;
76380;SDS011;65202;52.520;10.528;2023-02-26T01:23:56;10.15;;;1.83;;
76380;SDS011;65202;52.520;10.528;2023-02-26T01:26:30;9.38;;;1.92;;
76380;SDS011;65202;52.520;10.528;2023-02-26T01:28:58;7.80;;;1.73;;
76380;SDS011;65202;52.520;10.528;2023-02-26T01:34:43;5.75;;;1.60;;
76380;SDS011;65202;52.520;10.528;2023-02-26T01:37:28;6.00;;;1.50;;
76380;SDS011;65202;52.520;10.528;2023-02-26T01:40:25;3.57;;;1.60;;
76380;SDS011;65202;52.520;10.528;2023-02-26T01:43:24;4.45;;;1.70;;
76380;SDS011;65202;52.520;10.528;2023-02-26T01:46:09;6.28;;;1.70;;
76380;SDS011;65202;52.520;10.528;2023-02-26T01:48:49;5.18;;;1.27;;
76380;SDS011;65202;52.520;10.528;2023-02-26T01:54:17;4.13;;;1.45;;
76380;SDS011;65202;52.520;10.528;2023-02-26T01:56:52;3.78;;;1.67;;
76380;SDS011;65202;52.520;10.528;2023-02-26T01:59:44;5.78;;;2.00;;
76380;SDS011;65202;52.520;10.528;2023-02-26T02:02:16;5.63;;;1.55;;
76380;SDS011;65202;52.520;10.528;2023-02-26T02:04:50;8.45;;;2.10;;
76380;SDS011;65202;52.520;10.528;2023-02-26T02:07:19;9.98;;;1.83;;
76380;SDS011;65202;52.520;10.528;2023-02-26T02:09:46;7.40;;;1.67;;
76380;SDS011;65202;52.520;10.528;2023-02-26T02:12:24;8.40;;;1.63;;
76380;SDS011;65202;52.520;10.528;2023-02-26T02:15:03;7.95;;;1.80;;
76380;SDS011;65202;52.520;10.528;2023-02-26T02:17:54;5.43;;;1.70;;
76380;SDS011;65202;52.520;10.528;2023-02-26T02:23:54;7.93;;;1.50;;
76380;SDS011;65202;52.520;10.528;2023-02-26T02:26:52;4.20;;;1.60;;
76380;SDS011;65202;52.520;10.528;2023-02-26T02:32:20;8.10;;;1.40;;
76380;SDS011;65202;52.520;10.528;2023-02-26T02:37:36;4.25;;;1.38;;
76380;SDS011;65202;52.520;10.528;2023-02-26T02:40:15;5.93;;;1.63;;
76380;SDS011;65202;52.520;10.528;2023-02-26T02:43:00;5.28;;;1.90;;
76380;SDS011;65202;52.520;10.528;2023-02-26T02:50:57;12.52;;;2.03;;
76380;SDS011;65202;52.520;10.528;2023-02-26T02:53:32;5.25;;;2.00;;
76380;SDS011;65202;52.520;10.528;2023-02-26T02:56:11;7.45;;;1.70;;
76380;SDS011;65202;52.520;10.528;2023-02-26T02:58:54;5.53;;;1.83;;
76380;SDS011;65202;52.520;10.528;2023-02-26T03:01:58;6.65;;;1.98;;
76380;SDS011;65202;52.520;10.528;2023-02-26T03:04:37;9.55;;;2.00;;
76380;SDS011;65202;52.520;10.528;2023-02-26T03:07:06;8.70;;;1.63;;
76380;SDS011;65202;52.520;10.528;2023-02-26T03:09:34;3.88;;;2.00;;
76380;SDS011;65202;52.520;10.528;2023-02-26T03:12:02;3.53;;;1.60;;
76380;SDS011;65202;52.520;10.528;2023-02-26T03:14:30;6.18;;;1.60;;
76380;SDS011;65202;52.520;10.528;2023-02-26T03:20:19;4.97;;;1.55;;
76380;SDS011;65202;52.520;10.528;2023-02-26T03:25:42;9.00;;;1.50;;
76380;SDS011;65202;52.520;10.528;2023-02-26T03:31:54;5.60;;;1.45;;
76380;SDS011;65202;52.520;10.528;2023-02-26T03:34:29;6.20;;;1.63;;
76380;SDS011;65202;52.520;10.528;2023-02-26T03:37:26;10.93;;;1.80;;
76380;SDS011;65202;52.520;10.528;2023-02-26T03:40:03;7.65;;;1.50;;
76380;SDS011;65202;52.520;10.528;2023-02-26T03:42:49;4.03;;;1.17;;
76380;SDS011;65202;52.520;10.528;2023-02-26T03:45:27;8.23;;;1.83;;
76380;SDS011;65202;52.520;10.528;2023-02-26T03:47:59;7.22;;;1.30;;
76380;SDS011;65202;52.520;10.528;2023-02-26T03:50:42;9.20;;;2.00;;
76380;SDS011;65202;52.520;10.528;2023-02-26T03:53:24;6.15;;;1.60;;
76380;SDS011;65202;52.520;10.528;2023-02-26T03:56:07;4.30;;;1.38;;
76380;SDS011;65202;52.520;10.528;2023-02-26T03:58:41;7.35;;;1.50;;
76380;SDS011;65202;52.520;10.528;2023-02-26T04:01:11;4.50;;;1.30;;
76380;SDS011;65202;52.520;10.528;2023-02-26T04:03:53;5.50;;;1.40;;
76380;SDS011;65202;52.520;10.528;2023-02-26T04:06:29;5.28;;;1.38;;
76380;SDS011;65202;52.520;10.528;2023-02-26T04:08:59;6.63;;;1.40;;
76380;SDS011;65202;52.520;10.528;2023-02-26T04:11:28;5.35;;;1.38;;
76380;SDS011;65202;52.520;10.528;2023-02-26T04:13:57;7.68;;;1.60;;
76380;SDS011;65202;52.520;10.528;2023-02-26T04:16:24;5.07;;;1.50;;
76380;SDS011;65202;52.520;10.528;2023-02-26T04:18:52;4.25;;;1.50;;
76380;SDS011;65202;52.520;10.528;2023-02-26T04:21:20;5.97;;;1.58;;
76380;SDS011;65202;52.520;10.528;2023-02-26T04:23:48;6.15;;;1.60;;
76380;SDS011;65202;52.520;10.528;2023-02-26T04:26:15;7.50;;;1.75;;
76380;SDS011;65202;52.520;10.528;2023-02-26T04:28:43;3.67;;;1.20;;
76380;SDS011;65202;52.520;10.528;2023-02-26T04:31:10;7.32;;;1.58;;
76380;SDS011;65202;52.520;10.528;2023-02-26T04:33:37;6.72;;;1.70;;
76380;SDS011;65202;52.520;10.528;2023-02-26T04:36:04;5.18;;;1.33;;
76380;SDS011;65202;52.520;10.528;2023-02-26T04:38:32;7.22;;;1.80;;
76380;SDS011;65202;52.520;10.528;2023-02-26T04:40:59;6.32;;;1.45;;
76380;SDS011;65202;52.520;10.528;2023-02-26T04:43:26;7.13;;;1.60;;
76380;SDS011;65202;52.520;10.528;2023-02-26T04:45:54;6.30;;;1.42;;
76380;SDS011;65202;52.520;10.528;2023-02-26T04:48:21;6.95;;;1.50;;
76380;SDS011;65202;52.520;10.528;2023-02-26T04:50:48;7.53;;;1.73;;
76380;SDS011;65202;52.520;10.528;2023-02-26T04:53:15;6.55;;;1.35;;
76380;SDS011;65202;52.520;10.528;2023-02-26T04:55:43;5.28;;;1.45;;
76380;SDS011;65202;52.520;10.528;2023-02-26T04:58:10;4.35;;;1.38;;
76380;SDS011;65202;52.520;10.528;2023-02-26T05:00:37;4.05;;;1.52;;
76380;SDS011;65202;52.520;10.528;2023-02-26T05:03:05;6.80;;;1.42;;
76380;SDS011;65202;52.520;10.528;2023-02-26T05:05:32;7.60;;;1.35;;
76380;SDS011;65202;52.520;10.528;2023-02-26T05:08:00;5.60;;;1.33;;
76380;SDS011;65202;52.520;10.528;2023-02-26T05:10:27;4.80;;;1.40;;
76380;SDS011;65202;52.520;10.528;2023-02-26T05:12:54;5.45;;;1.30;;
76380;SDS011;65202;52.520;10.528;2023-02-26T05:15:22;6.25;;;1.65;;
76380;SDS011;65202;52.520;10.528;2023-02-26T05:17:49;4.53;;;1.25;;
76380;SDS011;65202;52.520;10.528;2023-02-26T05:20:16;7.07;;;1.67;;
76380;SDS011;65202;52.520;10.528;2023-02-26T05:22:43;6.45;;;1.40;;
76380;SDS011;65202;52.520;10.528;2023-02-26T05:25:11;8.07;;;1.20;;
76380;SDS011;65202;52.520;10.528;2023-02-26T05:27:39;6.20;;;1.52;;
76380;SDS011;65202;52.520;10.528;2023-02-26T05:30:08;9.55;;;1.55;;
76380;SDS011;65202;52.520;10.528;2023-02-26T05:32:39;4.53;;;1.38;;
76380;SDS011;65202;52.520;10.528;2023-02-26T05:35:07;5.03;;;1.52;;
76380;SDS011;65202;52.520;10.528;2023-02-26T05:37:36;5.90;;;1.35;;
76380;SDS011;65202;52.520;10.528;2023-02-26T05:40:04;6.50;;;1.48;;
76380;SDS011;65202;52.520;10.528;2023-02-26T05:45:05;3.30;;;0.93;;
76380;SDS011;65202;52.520;10.528;2023-02-26T05:47:33;2.67;;;0.98;;
76380;SDS011;65202;52.520;10.528;2023-02-26T05:50:02;7.55;;;1.20;;
76380;SDS011;65202;52.520;10.528;2023-02-26T05:52:31;4.70;;;1.40;;
76380;SDS011;65202;52.520;10.528;2023-02-26T05:54:58;5.75;;;1.20;;
76380;SDS011;65202;52.520;10.528;2023-02-26T05:57:26;6.22;;;1.00;;
76380;SDS011;65202;52.520;10.528;2023-02-26T05:59:54;4.93;;;1.20;;
76380;SDS011;65202;52.520;10.528;2023-02-26T06:02:21;4.45;;;1.50;;
76380;SDS011;65202;52.520;10.528;2023-02-26T06:04:48;10.48;;;3.05;;
76380;SDS011;65202;52.520;10.528;2023-02-26T06:07:16;4.47;;;1.25;;
76380;SDS011;65202;52.520;10.528;2023-02-26T06:09:43;2.28;;;1.10;;
76380;SDS011;65202;52.520;10.528;2023-02-26T06:12:10;5.78;;;1.33;;
76380;SDS011;65202;52.520;10.528;2023-02-26T06:14:37;3.72;;;1.40;;
76380;SDS011;65202;52.520;10.528;2023-02-26T06:17:04;5.82;;;1.23;;
76380;SDS011;65202;52.520;10.528;2023-02-26T06:19:32;5.63;;;1.20;;
76380;SDS011;65202;52.520;10.528;2023-02-26T06:22:00;4.93;;;1.30;;
76380;SDS011;65202;52.520;10.528;2023-02-26T06:24:27;4.15;;;1.23;;
76380;SDS011;65202;52.520;10.528;2023-02-26T06:26:54;4.75;;;1.20;;
76380;SDS011;65202;52.520;10.528;2023-02-26T06:29:21;8.85;;;1.42;;
76380;SDS011;65202;52.520;10.528;2023-02-26T06:31:49;2.85;;;1.10;;
76380;SDS011;65202;52.520;10.528;2023-02-26T06:34:16;5.22;;;1.33;;
76380;SDS011;65202;52.520;10.528;2023-02-26T06:36:44;3.72;;;1.17;;
76380;SDS011;65202;52.520;10.528;2023-02-26T06:39:11;5.38;;;1.10;;
76380;SDS011;65202;52.520;10.528;2023-02-26T06:41:38;6.63;;;1.95;;
76380;SDS011;65202;52.520;10.528;2023-02-26T06:44:06;3.70;;;1.02;;
76380;SDS011;65202;52.520;10.528;2023-02-26T06:46:33;4.93;;;1.17;;
76380;SDS011;65202;52.520;10.528;2023-02-26T06:49:00;6.07;;;1.10;;
76380;SDS011;65202;52.520;10.528;2023-02-26T06:51:27;3.78;;;1.10;;
76380;SDS011;65202;52.520;10.528;2023-02-26T06:53:55;3.35;;;1.17;;
76380;SDS011;65202;52.520;10.528;2023-02-26T06:56:23;5.05;;;1.38;;
76380;SDS011;65202;52.520;10.528;2023-02-26T06:58:50;5.22;;;1.77;;
76380;SDS011;65202;52.520;10.528;2023-02-26T07:01:17;6.15;;;2.47;;
76380;SDS011;65202;52.520;10.528;2023-02-26T07:03:45;3.45;;;1.35;;
76380;SDS011;65202;52.520;10.528;2023-02-26T07:06:12;4.40;;;1.25;;
76380;SDS011;65202;52.520;10.528;2023-02-26T07:08:53;5.75;;;1.67;;
76380;SDS011;65202;52.520;10.528;2023-02-26T07:11:22;5.07;;;1.20;;
76380;SDS011;65202;52.520;10.528;2023-02-26T07:13:49;7.03;;;1.63;;
76380;SDS011;65202;52.520;10.528;2023-02-26T07:16:19;4.65;;;1.40;;
76380;SDS011;65202;52.520;10.528;2023-02-26T07:18:46;4.82;;;1.73;;
76380;SDS011;65202;52.520;10.528;2023-02-26T07:21:14;7.90;;;2.17;;
76380;SDS011;65202;52.520;10.528;2023-02-26T07:23:41;8.00;;;2.60;;
76380;SDS011;65202;52.520;10.528;2023-02-26T07:26:08;8.02;;;2.05;;
76380;SDS011;65202;52.520;10.528;2023-02-26T07:28:35;6.07;;;1.52;;
76380;SDS011;65202;52.520;10.528;2023-02-26T07:31:02;5.55;;;1.75;;
76380;SDS011;65202;52.520;10.528;2023-02-26T07:33:30;7.00;;;1.83;;
76380;SDS011;65202;52.520;10.528;2023-02-26T07:35:57;6.25;;;1.63;;
76380;SDS011;65202;52.520;10.528;2023-02-26T07:38:25;5.68;;;1.67;;
76380;SDS011;65202;52.520;10.528;2023-02-26T07:40:55;11.70;;;2.78;;
76380;SDS011;65202;52.520;10.528;2023-02-26T07:43:23;4.65;;;1.85;;
76380;SDS011;65202;52.520;10.528;2023-02-26T07:45:50;5.10;;;1.40;;
76380;SDS011;65202;52.520;10.528;2023-02-26T07:48:19;7.03;;;1.75;;
76380;SDS011;65202;52.520;10.528;2023-02-26T07:50:46;8.35;;;2.10;;
76380;SDS011;65202;52.520;10.528;2023-02-26T07:53:13;5.88;;;1.65;;
76380;SDS011;65202;52.520;10.528;2023-02-26T07:55:40;4.88;;;1.90;;
76380;SDS011;65202;52.520;10.528;2023-02-26T07:58:08;9.25;;;1.80;;
76380;SDS011;65202;52.520;10.528;2023-02-26T08:00:35;4.38;;;1.75;;
76380;SDS011;65202;52.520;10.528;2023-02-26T08:03:02;5.47;;;1.98;;
76380;SDS011;65202;52.520;10.528;2023-02-26T08:05:29;3.80;;;1.20;;
76380;SDS011;65202;52.520;10.528;2023-02-26T08:07:56;4.57;;;1.52;;
76380;SDS011;65202;52.520;10.528;2023-02-26T08:10:23;3.90;;;1.60;;
76380;SDS011;65202;52.520;10.528;2023-02-26T08:12:51;6.30;;;2.03;;
76380;SDS011;65202;52.520;10.528;2023-02-26T08:15:18;5.00;;;1.40;;
76380;SDS011;65202;52.520;10.528;2023-02-26T08:17:45;8.48;;;1.10;;
76380;SDS011;65202;52.520;10.528;2023-02-26T08:20:13;3.63;;;1.10;;
76380;SDS011;65202;52.520;10.528;2023-02-26T08:22:41;2.88;;;1.25;;
76380;SDS011;65202;52.520;10.528;2023-02-26T08:25:08;4.07;;;1.27;;
76380;SDS011;65202;52.520;10.528;2023-02-26T08:27:35;1.88;;;1.00;;
76380;SDS011;65202;52.520;10.528;2023-02-26T08:30:03;2.95;;;1.20;;
76380;SDS011;65202;52.520;10.528;2023-02-26T08:32:33;3.47;;;1.00;;
76380;SDS011;65202;52.520;10.528;2023-02-26T08:35:00;1.92;;;1.00;;
76380;SDS011;65202;52.520;10.528;2023-02-26T08:37:28;2.33;;;0.98;;
76380;SDS011;65202;52.520;10.528;2023-02-26T08:39:55;5.85;;;1.27;;
76380;SDS011;65202;52.520;10.528;2023-02-26T08:42:22;3.05;;;0.98;;
76380;SDS011;65202;52.520;10.528;2023-02-26T08:44:50;4.18;;;1.20;;
76380;SDS011;65202;52.520;10.528;2023-02-26T08:47:17;5.10;;;1.20;;
76380;SDS011;65202;52.520;10.528;2023-02-26T08:49:54;2.72;;;1.00;;
76380;SDS011;65202;52.520;10.528;2023-02-26T08:52:22;3.85;;;0.98;;
76380;SDS011;65202;52.520;10.528;2023-02-26T08:54:49;3.00;;;0.93;;
76380;SDS011;65202;52.520;10.528;2023-02-26T08:57:16;5.70;;;1.30;;
76380;SDS011;65202;52.520;10.528;2023-02-26T08:59:44;4.22;;;1.20;;
76380;SDS011;65202;52.520;10.528;2023-02-26T09:02:11;2.95;;;1.05;;
76380;SDS011;65202;52.520;10.528;2023-02-26T09:04:40;2.30;;;1.00;;
76380;SDS011;65202;52.520;10.528;2023-02-26T09:07:07;3.60;;;1.13;;
76380;SDS011;65202;52.520;10.528;2023-02-26T09:09:34;4.00;;;1.42;;
76380;SDS011;65202;52.520;10.528;2023-02-26T09:12:01;5.10;;;1.70;;
76380;SDS011;65202;52.520;10.528;2023-02-26T09:14:28;2.55;;;0.90;;
76380;SDS011;65202;52.520;10.528;2023-02-26T09:16:56;4.22;;;1.02;;
76380;SDS011;65202;52.520;10.528;2023-02-26T09:19:23;4.45;;;1.30;;
76380;SDS011;65202;52.520;10.528;2023-02-26T09:21:50;2.95;;;1.35;;
76380;SDS011;65202;52.520;10.528;2023-02-26T09:24:17;5.22;;;1.10;;
76380;SDS011;65202;52.520;10.528;2023-02-26T09:26:44;5.78;;;1.20;;
76380;SDS011;65202;52.520;10.528;2023-02-26T09:29:12;3.53;;;1.00;;
76380;SDS011;65202;52.520;10.528;2023-02-26T09:31:40;6.57;;;3.70;;
76380;SDS011;65202;52.520;10.528;2023-02-26T09:34:07;5.47;;;1.60;;
76380;SDS011;65202;52.520;10.528;2023-02-26T09:36:37;3.28;;;1.23;;
76380;SDS011;65202;52.520;10.528;2023-02-26T09:39:05;6.05;;;1.40;;
76380;SDS011;65202;52.520;10.528;2023-02-26T09:41:38;4.55;;;1.20;;
76380;SDS011;65202;52.520;10.528;2023-02-26T09:44:28;3.95;;;1.30;;
76380;SDS011;65202;52.520;10.528;2023-02-26T09:50:10;2.42;;;1.30;;
76380;SDS011;65202;52.520;10.528;2023-02-26T09:55:29;2.78;;;0.98;;
76380;SDS011;65202;52.520;10.528;2023-02-26T10:01:12;1.85;;;0.90;;
76380;SDS011;65202;52.520;10.528;2023-02-26T10:09:53;4.47;;;1.30;;
76380;SDS011;65202;52.520;10.528;2023-02-26T10:12:28;2.95;;;0.90;;
76380;SDS011;65202;52.520;10.528;2023-02-26T10:15:14;2.88;;;1.08;;
76380;SDS011;65202;52.520;10.528;2023-02-26T10:17:53;2.80;;;0.98;;
76380;SDS011;65202;52.520;10.528;2023-02-26T10:23:24;2.53;;;0.80;;
76380;SDS011;65202;52.520;10.528;2023-02-26T10:26:06;2.05;;;0.80;;
76380;SDS011;65202;52.520;10.528;2023-02-26T10:35:11;3.00;;;0.90;;
76380;SDS011;65202;52.520;10.528;2023-02-26T10:46:30;6.10;;;1.00;;
76380;SDS011;65202;52.520;10.528;2023-02-26T10:52:24;4.28;;;1.10;;
76380;SDS011;65202;52.520;10.528;2023-02-26T10:55:00;5.20;;;1.55;;
76380;SDS011;65202;52.520;10.528;2023-02-26T10:57:34;2.80;;;0.90;;
76380;SDS011;65202;52.520;10.528;2023-02-26T11:00:06;2.75;;;1.10;;
76380;SDS011;65202;52.520;10.528;2023-02-26T11:02:43;2.15;;;1.00;;
76380;SDS011;65202;52.520;10.528;2023-02-26T11:05:16;4.90;;;0.95;;
76380;SDS011;65202;52.520;10.528;2023-02-26T11:07:49;3.30;;;1.10;;
76380;SDS011;65202;52.520;10.528;2023-02-26T11:10:22;3.17;;;0.85;;
76380;SDS011;65202;52.520;10.528;2023-02-26T11:12:53;1.85;;;0.80;;
76380;SDS011;65202;52.520;10.528;2023-02-26T11:15:21;2.33;;;0.88;;
76380;SDS011;65202;52.520;10.528;2023-02-26T11:17:53;2.35;;;0.95;;
76380;SDS011;65202;52.520;10.528;2023-02-26T11:20:35;2.75;;;1.00;;
76380;SDS011;65202;52.520;10.528;2023-02-26T11:23:16;2.63;;;0.88;;
76380;SDS011;65202;52.520;10.528;2023-02-26T11:25:51;2.83;;;1.02;;
76380;SDS011;65202;52.520;10.528;2023-02-26T11:28:47;3.47;;;0.95;;
76380;SDS011;65202;52.520;10.528;2023-02-26T11:31:17;2.38;;;0.90;;
76380;SDS011;65202;52.520;10.528;2023-02-26T11:33:48;2.33;;;0.98;;
76380;SDS011;65202;52.520;10.528;2023-02-26T11:36:22;4.50;;;0.90;;
76380;SDS011;65202;52.520;10.528;2023-02-26T11:38:57;2.42;;;0.88;;
76380;SDS011;65202;52.520;10.528;2023-02-26T11:41:31;1.73;;;0.80;;
76380;SDS011;65202;52.520;10.528;2023-02-26T11:44:09;2.47;;;0.90;;
76380;SDS011;65202;52.520;10.528;2023-02-26T11:46:45;3.95;;;0.90;;
76380;SDS011;65202;52.520;10.528;2023-02-26T11:49:19;2.17;;;0.85;;
76380;SDS011;65202;52.520;10.528;2023-02-26T11:58:09;3.83;;;1.30;;
76380;SDS011;65202;52.520;10.528;2023-02-26T12:00:45;2.40;;;0.80;;
76380;SDS011;65202;52.520;10.528;2023-02-26T12:03:20;4.07;;;1.00;;
76380;SDS011;65202;52.520;10.528;2023-02-26T12:05:52;2.05;;;0.90;;
76380;SDS011;65202;52.520;10.528;2023-02-26T12:08:23;3.28;;;0.90;;
76380;SDS011;65202;52.520;10.528;2023-02-26T12:13:35;3.10;;;0.90;;
76380;SDS011;65202;52.520;10.528;2023-02-26T12:16:19;3.22;;;0.90;;
76380;SDS011;65202;52.520;10.528;2023-02-26T12:19:05;3.30;;;1.23;;
76380;SDS011;65202;52.520;10.528;2023-02-26T12:28:02;2.53;;;1.10;;
76380;SDS011;65202;52.520;10.528;2023-02-26T12:30:55;8.70;;;3.70;;
76380;SDS011;65202;52.520;10.528;2023-02-26T12:42:31;2.13;;;1.10;;
76380;SDS011;65202;52.520;10.528;2023-02-26T12:48:25;0.88;;;0.57;;
76380;SDS011;65202;52.520;10.528;2023-02-26T12:51:43;2.15;;;1.13;;
76380;SDS011;65202;52.520;10.528;2023-02-26T12:54:38;2.88;;;1.00;;
76380;SDS011;65202;52.520;10.528;2023-02-26T12:57:46;8.25;;;3.70;;
76380;SDS011;65202;52.520;10.528;2023-02-26T13:00:51;3.35;;;0.98;;
76380;SDS011;65202;52.520;10.528;2023-02-26T13:04:01;4.57;;;2.40;;
76380;SDS011;65202;52.520;10.528;2023-02-26T13:10:14;4.25;;;1.20;;
76380;SDS011;65202;52.520;10.528;2023-02-26T13:13:20;1.63;;;1.00;;
76380;SDS011;65202;52.520;10.528;2023-02-26T13:19:43;1.08;;;0.82;;
76380;SDS011;65202;52.520;10.528;2023-02-26T13:22:38;3.97;;;1.00;;
76380;SDS011;65202;52.520;10.528;2023-02-26T13:25:23;4.35;;;0.90;;
76380;SDS011;65202;52.520;10.528;2023-02-26T13:31:15;2.97;;;1.20;;
76380;SDS011;65202;52.520;10.528;2023-02-26T13:33:53;3.50;;;0.90;;
76380;SDS011;65202;52.520;10.528;2023-02-26T13:36:25;3.67;;;0.90;;
76380;SDS011;65202;52.520;10.528;2023-02-26T13:39:18;2.33;;;1.00;;
76380;SDS011;65202;52.520;10.528;2023-02-26T13:51:26;3.50;;;1.25;;
76380;SDS011;65202;52.520;10.528;2023-02-26T13:54:01;1.05;;;0.73;;
76380;SDS011;65202;52.520;10.528;2023-02-26T13:57:22;1.58;;;0.95;;
76380;SDS011;65202;52.520;10.528;2023-02-26T14:00:07;4.50;;;0.98;;
76380;SDS011;65202;52.520;10.528;2023-02-26T14:08:18;2.28;;;0.90;;
76380;SDS011;65202;52.520;10.528;2023-02-26T14:11:01;4.35;;;0.93;;
76380;SDS011;65202;52.520;10.528;2023-02-26T14:13:39;0.90;;;0.63;;
76380;SDS011;65202;52.520;10.528;2023-02-26T14:16:11;2.20;;;0.98;;
76380;SDS011;65202;52.520;10.528;2023-02-26T14:19:13;2.25;;;0.90;;
76380;SDS011;65202;52.520;10.528;2023-02-26T14:21:54;2.35;;;0.95;;
76380;SDS011;65202;52.520;10.528;2023-02-26T14:24:59;3.97;;;0.80;;
76380;SDS011;65202;52.520;10.528;2023-02-26T14:27:37;2.65;;;0.90;;
76380;SDS011;65202;52.520;10.528;2023-02-26T14:35:21;1.20;;;0.50;;
76380;SDS011;65202;52.520;10.528;2023-02-26T14:43:35;2.70;;;0.80;;
76380;SDS011;65202;52.520;10.528;2023-02-26T14:46:07;2.55;;;0.80;;
76380;SDS011;65202;52.520;10.528;2023-02-26T14:48:36;2.28;;;0.90;;
76380;SDS011;65202;52.520;10.528;2023-02-26T14:54:19;2.38;;;0.90;;
76380;SDS011;65202;52.520;10.528;2023-02-26T14:57:02;1.35;;;0.65;;
76380;SDS011;65202;52.520;10.528;2023-02-26T15:08:46;2.40;;;1.20;;
76380;SDS011;65202;52.520;10.528;2023-02-26T15:14:46;3.15;;;1.00;;
76380;SDS011;65202;52.520;10.528;2023-02-26T15:26:07;2.35;;;1.05;;
76380;SDS011;65202;52.520;10.528;2023-02-26T15:28:45;2.35;;;0.70;;
76380;SDS011;65202;52.520;10.528;2023-02-26T15:31:14;1.80;;;0.80;;
76380;SDS011;65202;52.520;10.528;2023-02-26T15:33:46;1.38;;;0.52;;
76380;SDS011;65202;52.520;10.528;2023-02-26T15:36:16;2.15;;;0.77;;
76380;SDS011;65202;52.520;10.528;2023-02-26T15:38:48;2.88;;;0.60;;
76380;SDS011;65202;52.520;10.528;2023-02-26T15:41:22;1.80;;;0.57;;
76380;SDS011;65202;52.520;10.528;2023-02-26T15:43:54;2.53;;;1.20;;
76380;SDS011;65202;52.520;10.528;2023-02-26T15:46:31;1.92;;;1.08;;
76380;SDS011;65202;52.520;10.528;2023-02-26T15:49:05;3.65;;;1.40;;
76380;SDS011;65202;52.520;10.528;2023-02-26T15:51:39;1.20;;;0.93;;
76380;SDS011;65202;52.520;10.528;2023-02-26T15:54:09;3.45;;;1.30;;
76380;SDS011;65202;52.520;10.528;2023-02-26T15:56:43;3.38;;;1.20;;
76380;SDS011;65202;52.520;10.528;2023-02-26T15:59:17;4.20;;;1.05;;
76380;SDS011;65202;52.520;10.528;2023-02-26T16:01:53;2.50;;;1.00;;
76380;SDS011;65202;52.520;10.528;2023-02-26T16:04:21;2.85;;;1.25;;
76380;SDS011;65202;52.520;10.528;2023-02-26T16:06:54;1.27;;;0.80;;
76380;SDS011;65202;52.520;10.528;2023-02-26T16:09:26;3.33;;;0.80;;
76380;SDS011;65202;52.520;10.528;2023-02-26T16:11:57;2.60;;;1.00;;
76380;SDS011;65202;52.520;10.528;2023-02-26T16:14:32;1.02;;;0.60;;
76380;SDS011;65202;52.520;10.528;2023-02-26T16:17:05;14.50;;;7.10;;
76380;SDS011;65202;52.520;10.528;2023-02-26T16:19:41;9.55;;;4.70;;
76380;SDS011;65202;52.520;10.528;2023-02-26T16:24:58;25.30;;;11.50;;
76380;SDS011;65202;52.520;10.528;2023-02-26T16:27:33;7.22;;;1.95;;
76380;SDS011;65202;52.520;10.528;2023-02-26T16:30:03;5.30;;;1.08;;
76380;SDS011;65202;52.520;10.528;2023-02-26T16:32:32;2.42;;;1.10;;
76380;SDS011;65202;52.520;10.528;2023-02-26T16:35:10;2.13;;;0.90;;
76380;SDS011;65202;52.520;10.528;2023-02-26T16:37:44;3.50;;;1.20;;
76380;SDS011;65202;52.520;10.528;2023-02-26T16:40:16;2.45;;;0.63;;
76380;SDS011;65202;52.520;10.528;2023-02-26T16:43:01;3.10;;;0.82;;
76380;SDS011;65202;52.520;10.528;2023-02-26T16:46:02;4.78;;;0.70;;
76380;SDS011;65202;52.520;10.528;2023-02-26T16:48:35;2.47;;;0.85;;
76380;SDS011;65202;52.520;10.528;2023-02-26T16:51:11;3.28;;;0.90;;
76380;SDS011;65202;52.520;10.528;2023-02-26T16:53:46;3.88;;;1.10;;
76380;SDS011;65202;52.520;10.528;2023-02-26T17:01:35;2.70;;;1.00;;
76380;SDS011;65202;52.520;10.528;2023-02-26T17:04:10;1.67;;;1.13;;
76380;SDS011;65202;52.520;10.528;2023-02-26T17:06:44;2.20;;;1.10;;
76380;SDS011;65202;52.520;10.528;2023-02-26T17:09:36;3.58;;;1.00;;
76380;SDS011;65202;52.520;10.528;2023-02-26T17:12:15;1.63;;;0.77;;
76380;SDS011;65202;52.520;10.528;2023-02-26T17:17:24;3.20;;;0.90;;
76380;SDS011;65202;52.520;10.528;2023-02-26T17:19:51;2.72;;;1.10;;
76380;SDS011;65202;52.520;10.528;2023-02-26T17:22:26;3.80;;;1.63;;
76380;SDS011;65202;52.520;10.528;2023-02-26T17:24:55;5.13;;;1.50;;
76380;SDS011;65202;52.520;10.528;2023-02-26T17:27:26;3.45;;;1.00;;
76380;SDS011;65202;52.520;10.528;2023-02-26T17:30:04;4.70;;;1.10;;
76380;SDS011;65202;52.520;10.528;2023-02-26T17:32:32;3.67;;;1.20;;
76380;SDS011;65202;52.520;10.528;2023-02-26T17:35:01;14.88;;;2.40;;
76380;SDS011;65202;52.520;10.528;2023-02-26T17:37:29;8.27;;;2.75;;
76380;SDS011;65202;52.520;10.528;2023-02-26T17:39:59;9.50;;;3.50;;
76380;SDS011;65202;52.520;10.528;2023-02-26T17:42:26;12.10;;;4.70;;
76380;SDS011;65202;52.520;10.528;2023-02-26T17:44:54;14.00;;;6.72;;
76380;SDS011;65202;52.520;10.528;2023-02-26T17:47:24;14.43;;;7.57;;
76380;SDS011;65202;52.520;10.528;2023-02-26T17:49:52;12.52;;;6.78;;
76380;SDS011;65202;52.520;10.528;2023-02-26T17:52:20;10.05;;;6.18;;
76380;SDS011;65202;52.520;10.528;2023-02-26T17:54:47;9.05;;;4.75;;
76380;SDS011;65202;52.520;10.528;2023-02-26T17:57:15;5.35;;;3.25;;
76380;SDS011;65202;52.520;10.528;2023-02-26T17:59:46;7.38;;;3.40;;
76380;SDS011;65202;52.520;10.528;2023-02-26T18:02:16;10.82;;;3.55;;
76380;SDS011;65202;52.520;10.528;2023-02-26T18:04:48;11.13;;;4.22;;
76380;SDS011;65202;52.520;10.528;2023-02-26T18:07:15;18.58;;;5.50;;